Terminal Aerodrome Forecast
Issued by NWS El Paso, TX

Home | Current Version | Previous Version | Text Only | Print | Product List | Glossary On
Versions: 1 2 3 4 5 6 7 8 9 10 11 12 13 14 15
000
FTUS44 KEPZ 260111 AAA
TAFELP
TAF AMD
KELP 260111Z 2601/2624 10020G25KT P6SM VCTS FEW090CB BKN150 BKN250
     FM260300 12005KT P6SM VCTS FEW090CB BKN150 BKN250
     FM261500 15006KT P6SM FEW080 BKN250=

USA.gov is the U.S. government's official web portal to all federal, state and local government web resources and services.